sensor_id;sensor_type;location;lat;lon;timestamp;pressure;altitude;pressure_sealevel;temperature;humidity
76998;BME280;65930;48.874;10.734;2023-03-24T00:02:12;95284.16;;;12.39;65.36
76998;BME280;65930;48.874;10.734;2023-03-24T00:04:40;95279.41;;;12.40;64.78
76998;BME280;65930;48.874;10.734;2023-03-24T00:07:09;95281.03;;;12.37;64.96
76998;BME280;65930;48.874;10.734;2023-03-24T00:09:41;95284.94;;;12.40;64.88
76998;BME280;65930;48.874;10.734;2023-03-24T00:12:11;95293.38;;;12.36;65.22
76998;BME280;65930;48.874;10.734;2023-03-24T00:14:39;95287.03;;;12.35;65.60
76998;BME280;65930;48.874;10.734;2023-03-24T00:17:08;95289.84;;;12.32;65.42
76998;BME280;65930;48.874;10.734;2023-03-24T00:19:39;95290.31;;;12.30;65.44
76998;BME280;65930;48.874;10.734;2023-03-24T00:22:08;95292.06;;;12.41;64.91
76998;BME280;65930;48.874;10.734;2023-03-24T00:24:39;95292.22;;;12.33;64.52
76998;BME280;65930;48.874;10.734;2023-03-24T00:27:07;95283.38;;;12.39;64.75
76998;BME280;65930;48.874;10.734;2023-03-24T00:29:39;95287.91;;;12.49;64.51
76998;BME280;65930;48.874;10.734;2023-03-24T00:32:08;95286.63;;;12.53;64.38
76998;BME280;65930;48.874;10.734;2023-03-24T00:34:36;95271.16;;;12.52;64.09
76998;BME280;65930;48.874;10.734;2023-03-24T00:37:05;95260.13;;;12.49;64.37
76998;BME280;65930;48.874;10.734;2023-03-24T00:39:33;95258.75;;;12.41;65.35
76998;BME280;65930;48.874;10.734;2023-03-24T00:42:01;95276.25;;;12.38;65.61
76998;BME280;65930;48.874;10.734;2023-03-24T00:44:29;95274.97;;;12.42;64.70
76998;BME280;65930;48.874;10.734;2023-03-24T00:46:57;95288.16;;;12.38;64.68
76998;BME280;65930;48.874;10.734;2023-03-24T00:49:28;95300.66;;;12.46;64.33
76998;BME280;65930;48.874;10.734;2023-03-24T00:52:12;95270.03;;;12.50;65.48
76998;BME280;65930;48.874;10.734;2023-03-24T00:54:41;95279.59;;;12.49;65.75
76998;BME280;65930;48.874;10.734;2023-03-24T00:57:12;95272.81;;;12.50;65.95
76998;BME280;65930;48.874;10.734;2023-03-24T00:59:41;95277.75;;;12.42;65.84
76998;BME280;65930;48.874;10.734;2023-03-24T01:02:14;95291.34;;;12.36;66.21
76998;BME280;65930;48.874;10.734;2023-03-24T01:04:45;95302.19;;;12.31;66.14
76998;BME280;65930;48.874;10.734;2023-03-24T01:07:14;95301.75;;;12.32;66.26
76998;BME280;65930;48.874;10.734;2023-03-24T01:09:45;95290.81;;;12.25;66.51
76998;BME280;65930;48.874;10.734;2023-03-24T01:12:17;95278.75;;;12.32;66.81
76998;BME280;65930;48.874;10.734;2023-03-24T01:14:47;95279.19;;;12.30;67.19
76998;BME280;65930;48.874;10.734;2023-03-24T01:17:15;95298.06;;;12.19;68.39
76998;BME280;65930;48.874;10.734;2023-03-24T01:19:44;95298.56;;;12.14;68.75
76998;BME280;65930;48.874;10.734;2023-03-24T01:22:14;95310.13;;;12.13;68.48
76998;BME280;65930;48.874;10.734;2023-03-24T01:24:42;95305.34;;;12.13;68.31
76998;BME280;65930;48.874;10.734;2023-03-24T01:27:10;95312.13;;;12.12;67.83
76998;BME280;65930;48.874;10.734;2023-03-24T01:29:39;95287.16;;;12.28;67.74
76998;BME280;65930;48.874;10.734;2023-03-24T01:32:08;95284.56;;;12.21;68.38
76998;BME280;65930;48.874;10.734;2023-03-24T01:34:36;95278.22;;;12.21;69.50
76998;BME280;65930;48.874;10.734;2023-03-24T01:37:04;95275.88;;;12.19;69.83
76998;BME280;65930;48.874;10.734;2023-03-24T01:39:33;95255.91;;;12.24;70.33
76998;BME280;65930;48.874;10.734;2023-03-24T01:42:01;95252.94;;;12.15;70.14
76998;BME280;65930;48.874;10.734;2023-03-24T01:44:31;95238.00;;;12.09;70.17
76998;BME280;65930;48.874;10.734;2023-03-24T01:47:02;95231.75;;;12.05;70.17
76998;BME280;65930;48.874;10.734;2023-03-24T01:49:36;95222.16;;;11.90;70.52
76998;BME280;65930;48.874;10.734;2023-03-24T01:52:10;95224.44;;;11.95;69.36
76998;BME280;65930;48.874;10.734;2023-03-24T01:54:46;95230.34;;;11.97;69.68
76998;BME280;65930;48.874;10.734;2023-03-24T01:57:20;95218.53;;;11.93;70.75
76998;BME280;65930;48.874;10.734;2023-03-24T01:59:54;95234.59;;;11.62;71.57
76998;BME280;65930;48.874;10.734;2023-03-24T02:02:24;95212.84;;;11.41;72.92
76998;BME280;65930;48.874;10.734;2023-03-24T02:04:57;95226.13;;;11.30;72.98
76998;BME280;65930;48.874;10.734;2023-03-24T02:07:31;95221.25;;;11.37;72.26
76998;BME280;65930;48.874;10.734;2023-03-24T02:10:05;95207.66;;;11.43;70.75
76998;BME280;65930;48.874;10.734;2023-03-24T02:12:34;95215.25;;;11.59;70.77
76998;BME280;65930;48.874;10.734;2023-03-24T02:15:04;95198.47;;;11.66;70.45
76998;BME280;65930;48.874;10.734;2023-03-24T02:17:48;95197.63;;;11.69;70.54
76998;BME280;65930;48.874;10.734;2023-03-24T02:20:34;95188.31;;;11.59;71.28
76998;BME280;65930;48.874;10.734;2023-03-24T02:23:33;95186.53;;;11.69;69.46
76998;BME280;65930;48.874;10.734;2023-03-24T02:32:30;95174.22;;;11.70;69.09
76998;BME280;65930;48.874;10.734;2023-03-24T02:35:23;95172.09;;;11.77;69.33
76998;BME280;65930;48.874;10.734;2023-03-24T02:40:59;95166.31;;;11.68;69.20
76998;BME280;65930;48.874;10.734;2023-03-24T02:43:44;95165.84;;;11.73;68.71
76998;BME280;65930;48.874;10.734;2023-03-24T02:46:22;95162.16;;;11.80;68.24
76998;BME280;65930;48.874;10.734;2023-03-24T02:49:06;95159.28;;;11.83;68.24
76998;BME280;65930;48.874;10.734;2023-03-24T02:51:39;95167.09;;;11.88;68.00
76998;BME280;65930;48.874;10.734;2023-03-24T02:54:16;95154.44;;;11.87;67.59
76998;BME280;65930;48.874;10.734;2023-03-24T02:56:52;95145.59;;;11.93;67.14
76998;BME280;65930;48.874;10.734;2023-03-24T02:59:31;95142.09;;;12.08;66.08
76998;BME280;65930;48.874;10.734;2023-03-24T03:02:06;95134.69;;;12.18;65.19
76998;BME280;65930;48.874;10.734;2023-03-24T03:04:40;95138.28;;;12.34;65.04
76998;BME280;65930;48.874;10.734;2023-03-24T03:07:12;95145.22;;;12.26;64.92
76998;BME280;65930;48.874;10.734;2023-03-24T03:09:48;95143.03;;;12.34;64.98
76998;BME280;65930;48.874;10.734;2023-03-24T03:12:22;95133.13;;;12.33;64.51
76998;BME280;65930;48.874;10.734;2023-03-24T03:14:59;95127.50;;;12.36;65.08
76998;BME280;65930;48.874;10.734;2023-03-24T03:17:34;95130.56;;;12.26;65.47
76998;BME280;65930;48.874;10.734;2023-03-24T03:20:10;95133.31;;;12.26;65.79
76998;BME280;65930;48.874;10.734;2023-03-24T03:22:44;95123.19;;;12.35;66.06
76998;BME280;65930;48.874;10.734;2023-03-24T03:25:20;95111.44;;;12.28;66.22
76998;BME280;65930;48.874;10.734;2023-03-24T03:27:53;95113.63;;;12.20;66.13
76998;BME280;65930;48.874;10.734;2023-03-24T03:30:26;95111.47;;;12.12;67.07
76998;BME280;65930;48.874;10.734;2023-03-24T03:33:03;95110.66;;;12.11;66.96
76998;BME280;65930;48.874;10.734;2023-03-24T03:35:37;95111.00;;;11.97;66.99
76998;BME280;65930;48.874;10.734;2023-03-24T03:38:14;95100.97;;;12.03;67.13
76998;BME280;65930;48.874;10.734;2023-03-24T03:40:50;95113.00;;;11.97;67.17
76998;BME280;65930;48.874;10.734;2023-03-24T03:43:22;95110.91;;;12.01;67.49
76998;BME280;65930;48.874;10.734;2023-03-24T03:45:50;95130.84;;;11.96;67.68
76998;BME280;65930;48.874;10.734;2023-03-24T03:48:18;95124.19;;;12.09;67.21
76998;BME280;65930;48.874;10.734;2023-03-24T03:50:47;95119.66;;;11.99;67.70
76998;BME280;65930;48.874;10.734;2023-03-24T03:53:38;95128.88;;;11.96;68.09
76998;BME280;65930;48.874;10.734;2023-03-24T03:56:09;95112.56;;;11.98;68.46
76998;BME280;65930;48.874;10.734;2023-03-24T03:58:38;95117.75;;;11.96;68.00
76998;BME280;65930;48.874;10.734;2023-03-24T04:01:12;95120.72;;;11.89;68.94
76998;BME280;65930;48.874;10.734;2023-03-24T04:04:00;95111.53;;;11.92;68.23
76998;BME280;65930;48.874;10.734;2023-03-24T04:06:38;95109.97;;;12.07;66.93
76998;BME280;65930;48.874;10.734;2023-03-24T04:09:28;95111.53;;;12.24;66.28
76998;BME280;65930;48.874;10.734;2023-03-24T04:12:23;95110.50;;;12.34;65.35
76998;BME280;65930;48.874;10.734;2023-03-24T04:15:23;95119.09;;;12.40;65.04
76998;BME280;65930;48.874;10.734;2023-03-24T04:18:16;95109.94;;;12.56;64.55
76998;BME280;65930;48.874;10.734;2023-03-24T04:20:51;95122.47;;;12.48;65.17
76998;BME280;65930;48.874;10.734;2023-03-24T04:23:29;95114.44;;;12.66;64.47
76998;BME280;65930;48.874;10.734;2023-03-24T04:26:15;95116.13;;;12.63;64.86
76998;BME280;65930;48.874;10.734;2023-03-24T04:29:04;95112.81;;;12.68;64.52
76998;BME280;65930;48.874;10.734;2023-03-24T04:31:42;95120.22;;;12.59;65.46
76998;BME280;65930;48.874;10.734;2023-03-24T04:34:19;95106.94;;;12.50;65.20
76998;BME280;65930;48.874;10.734;2023-03-24T04:36:57;95098.25;;;12.48;64.90
76998;BME280;65930;48.874;10.734;2023-03-24T04:39:37;95107.69;;;12.51;64.87
76998;BME280;65930;48.874;10.734;2023-03-24T04:42:12;95093.41;;;12.36;64.71
76998;BME280;65930;48.874;10.734;2023-03-24T04:44:41;95103.03;;;12.48;64.16
76998;BME280;65930;48.874;10.734;2023-03-24T04:47:11;95107.31;;;12.65;63.96
76998;BME280;65930;48.874;10.734;2023-03-24T04:50:00;95094.69;;;12.64;62.63
76998;BME280;65930;48.874;10.734;2023-03-24T04:52:33;95098.53;;;12.83;62.29
76998;BME280;65930;48.874;10.734;2023-03-24T04:55:11;95094.88;;;12.86;61.72
76998;BME280;65930;48.874;10.734;2023-03-24T04:57:47;95094.19;;;12.82;62.46
76998;BME280;65930;48.874;10.734;2023-03-24T05:00:15;95084.66;;;12.83;62.06
76998;BME280;65930;48.874;10.734;2023-03-24T05:02:45;95072.94;;;12.75;62.23
76998;BME280;65930;48.874;10.734;2023-03-24T05:05:13;95084.50;;;12.73;62.75
76998;BME280;65930;48.874;10.734;2023-03-24T05:07:44;95102.06;;;12.83;62.84
76998;BME280;65930;48.874;10.734;2023-03-24T05:10:12;95100.72;;;12.75;63.52
76998;BME280;65930;48.874;10.734;2023-03-24T05:12:41;95078.19;;;12.57;63.44
76998;BME280;65930;48.874;10.734;2023-03-24T05:15:10;95075.06;;;12.55;63.71
76998;BME280;65930;48.874;10.734;2023-03-24T05:17:38;95085.16;;;12.49;63.90
76998;BME280;65930;48.874;10.734;2023-03-24T05:20:09;95087.91;;;12.49;63.92
76998;BME280;65930;48.874;10.734;2023-03-24T05:22:37;95086.56;;;12.41;63.59
76998;BME280;65930;48.874;10.734;2023-03-24T05:25:06;95113.44;;;12.44;64.73
76998;BME280;65930;48.874;10.734;2023-03-24T05:27:34;95113.25;;;12.51;64.78
76998;BME280;65930;48.874;10.734;2023-03-24T05:30:03;95085.94;;;12.33;65.13
76998;BME280;65930;48.874;10.734;2023-03-24T05:32:32;95124.91;;;12.46;65.74
76998;BME280;65930;48.874;10.734;2023-03-24T05:35:00;95100.78;;;12.26;65.60
76998;BME280;65930;48.874;10.734;2023-03-24T05:37:30;95102.59;;;12.33;65.79
76998;BME280;65930;48.874;10.734;2023-03-24T05:39:58;95089.84;;;12.19;66.55
76998;BME280;65930;48.874;10.734;2023-03-24T05:42:26;95079.25;;;12.14;67.59
76998;BME280;65930;48.874;10.734;2023-03-24T05:44:54;95082.19;;;12.23;68.18
76998;BME280;65930;48.874;10.734;2023-03-24T05:47:22;95085.69;;;12.11;68.82
76998;BME280;65930;48.874;10.734;2023-03-24T05:49:56;95074.41;;;12.18;67.98
76998;BME280;65930;48.874;10.734;2023-03-24T05:52:24;95064.50;;;12.01;68.51
76998;BME280;65930;48.874;10.734;2023-03-24T05:55:10;95064.88;;;12.03;68.79
76998;BME280;65930;48.874;10.734;2023-03-24T05:57:39;95086.63;;;12.21;69.06
76998;BME280;65930;48.874;10.734;2023-03-24T06:00:08;95088.78;;;12.13;68.54
76998;BME280;65930;48.874;10.734;2023-03-24T06:02:43;95091.06;;;12.18;68.67
76998;BME280;65930;48.874;10.734;2023-03-24T06:05:12;95096.69;;;12.15;69.19
76998;BME280;65930;48.874;10.734;2023-03-24T06:07:40;95088.09;;;12.09;69.05
76998;BME280;65930;48.874;10.734;2023-03-24T06:10:16;95106.00;;;12.08;68.83
76998;BME280;65930;48.874;10.734;2023-03-24T06:12:45;95100.00;;;12.10;69.22
76998;BME280;65930;48.874;10.734;2023-03-24T06:15:13;95115.06;;;12.09;69.29
76998;BME280;65930;48.874;10.734;2023-03-24T06:17:53;95103.22;;;12.08;68.57
76998;BME280;65930;48.874;10.734;2023-03-24T06:20:24;95091.75;;;12.06;69.10
76998;BME280;65930;48.874;10.734;2023-03-24T06:22:58;95110.84;;;12.20;68.63
76998;BME280;65930;48.874;10.734;2023-03-24T06:25:29;95104.78;;;12.25;68.55
76998;BME280;65930;48.874;10.734;2023-03-24T06:27:59;95099.31;;;12.22;68.53
76998;BME280;65930;48.874;10.734;2023-03-24T06:30:34;95107.97;;;12.24;68.12
76998;BME280;65930;48.874;10.734;2023-03-24T06:33:02;95114.38;;;12.37;68.22
76998;BME280;65930;48.874;10.734;2023-03-24T06:35:41;95095.13;;;12.30;67.66
76998;BME280;65930;48.874;10.734;2023-03-24T06:38:10;95116.66;;;12.42;67.31
76998;BME280;65930;48.874;10.734;2023-03-24T06:40:43;95117.44;;;12.43;67.41
76998;BME280;65930;48.874;10.734;2023-03-24T06:43:11;95132.72;;;12.34;67.78
76998;BME280;65930;48.874;10.734;2023-03-24T06:45:39;95121.59;;;12.34;67.09
76998;BME280;65930;48.874;10.734;2023-03-24T06:48:11;95132.97;;;12.40;67.44
76998;BME280;65930;48.874;10.734;2023-03-24T06:50:39;95146.34;;;12.29;68.15
76998;BME280;65930;48.874;10.734;2023-03-24T06:53:18;95166.38;;;12.36;67.82
76998;BME280;65930;48.874;10.734;2023-03-24T06:55:48;95170.22;;;12.26;69.42
76998;BME280;65930;48.874;10.734;2023-03-24T06:58:18;95159.44;;;12.12;69.41
76998;BME280;65930;48.874;10.734;2023-03-24T07:00:46;95171.75;;;12.11;69.79
76998;BME280;65930;48.874;10.734;2023-03-24T07:03:14;95177.06;;;12.22;69.74
76998;BME280;65930;48.874;10.734;2023-03-24T07:05:44;95181.97;;;12.14;70.13
76998;BME280;65930;48.874;10.734;2023-03-24T07:08:12;95157.81;;;11.95;70.88
76998;BME280;65930;48.874;10.734;2023-03-24T07:10:43;95186.44;;;11.92;71.92
76998;BME280;65930;48.874;10.734;2023-03-24T07:13:13;95170.72;;;11.85;72.30
76998;BME280;65930;48.874;10.734;2023-03-24T07:15:41;95180.84;;;11.76;72.63
76998;BME280;65930;48.874;10.734;2023-03-24T07:18:09;95178.50;;;11.74;72.59
76998;BME280;65930;48.874;10.734;2023-03-24T07:20:40;95195.78;;;11.82;74.38
76998;BME280;65930;48.874;10.734;2023-03-24T07:23:09;95194.28;;;11.77;75.02
76998;BME280;65930;48.874;10.734;2023-03-24T07:25:38;95181.84;;;11.66;75.42
76998;BME280;65930;48.874;10.734;2023-03-24T07:28:07;95195.84;;;11.59;76.57
76998;BME280;65930;48.874;10.734;2023-03-24T07:30:41;95208.13;;;11.58;76.86
76998;BME280;65930;48.874;10.734;2023-03-24T07:33:10;95187.81;;;11.44;77.82
76998;BME280;65930;48.874;10.734;2023-03-24T07:35:40;95208.22;;;11.54;77.77
76998;BME280;65930;48.874;10.734;2023-03-24T07:38:09;95192.03;;;11.33;78.46
76998;BME280;65930;48.874;10.734;2023-03-24T07:40:39;95191.16;;;11.36;78.43
76998;BME280;65930;48.874;10.734;2023-03-24T07:43:11;95210.72;;;11.48;78.67
76998;BME280;65930;48.874;10.734;2023-03-24T07:45:46;95198.91;;;11.44;78.07
76998;BME280;65930;48.874;10.734;2023-03-24T07:48:15;95196.56;;;11.43;78.78
76998;BME280;65930;48.874;10.734;2023-03-24T07:50:43;95221.88;;;11.65;78.82
76998;BME280;65930;48.874;10.734;2023-03-24T07:53:12;95212.06;;;11.60;77.87
76998;BME280;65930;48.874;10.734;2023-03-24T07:55:44;95192.53;;;11.47;79.48
76998;BME280;65930;48.874;10.734;2023-03-24T07:58:12;95195.56;;;11.53;79.54
76998;BME280;65930;48.874;10.734;2023-03-24T08:00:40;95208.94;;;11.58;79.15
76998;BME280;65930;48.874;10.734;2023-03-24T08:03:11;95212.56;;;11.55;79.62
76998;BME280;65930;48.874;10.734;2023-03-24T08:05:42;95210.91;;;11.58;80.04
76998;BME280;65930;48.874;10.734;2023-03-24T08:08:11;95204.75;;;11.70;80.07
76998;BME280;65930;48.874;10.734;2023-03-24T08:10:39;95227.06;;;11.63;80.24
76998;BME280;65930;48.874;10.734;2023-03-24T08:13:08;95214.72;;;11.47;80.52
76998;BME280;65930;48.874;10.734;2023-03-24T08:15:36;95223.38;;;11.49;80.80
76998;BME280;65930;48.874;10.734;2023-03-24T08:18:04;95218.09;;;11.35;80.90
76998;BME280;65930;48.874;10.734;2023-03-24T08:20:34;95233.88;;;11.38;82.15
76998;BME280;65930;48.874;10.734;2023-03-24T08:23:03;95231.75;;;11.46;81.86
76998;BME280;65930;48.874;10.734;2023-03-24T08:25:31;95246.50;;;11.43;82.69
76998;BME280;65930;48.874;10.734;2023-03-24T08:28:00;95234.66;;;11.39;82.91
76998;BME280;65930;48.874;10.734;2023-03-24T08:30:28;95238.78;;;11.31;82.77
76998;BME280;65930;48.874;10.734;2023-03-24T08:32:58;95245.75;;;11.39;82.90
76998;BME280;65930;48.874;10.734;2023-03-24T08:35:30;95258.69;;;11.26;83.80
76998;BME280;65930;48.874;10.734;2023-03-24T08:38:00;95251.69;;;11.18;84.30
76998;BME280;65930;48.874;10.734;2023-03-24T08:40:33;95244.50;;;11.20;83.80
76998;BME280;65930;48.874;10.734;2023-03-24T08:43:04;95265.88;;;11.23;84.59
76998;BME280;65930;48.874;10.734;2023-03-24T08:45:35;95266.91;;;11.10;84.03
76998;BME280;65930;48.874;10.734;2023-03-24T08:48:06;95266.13;;;11.09;84.96
76998;BME280;65930;48.874;10.734;2023-03-24T08:50:37;95269.00;;;11.02;85.46
76998;BME280;65930;48.874;10.734;2023-03-24T08:53:08;95280.22;;;11.18;86.04
76998;BME280;65930;48.874;10.734;2023-03-24T08:55:36;95266.72;;;10.97;86.72
76998;BME280;65930;48.874;10.734;2023-03-24T08:58:07;95300.94;;;11.10;86.54
76998;BME280;65930;48.874;10.734;2023-03-24T09:00:36;95279.03;;;10.96;86.97
76998;BME280;65930;48.874;10.734;2023-03-24T09:03:04;95286.97;;;10.94;87.46
76998;BME280;65930;48.874;10.734;2023-03-24T09:05:33;95302.31;;;10.98;87.50
76998;BME280;65930;48.874;10.734;2023-03-24T09:08:21;95283.22;;;10.81;88.29
76998;BME280;65930;48.874;10.734;2023-03-24T09:10:50;95279.13;;;10.89;88.47
76998;BME280;65930;48.874;10.734;2023-03-24T09:13:18;95306.59;;;11.03;88.09
76998;BME280;65930;48.874;10.734;2023-03-24T09:15:48;95300.88;;;10.90;88.34
76998;BME280;65930;48.874;10.734;2023-03-24T09:18:19;95306.53;;;11.07;88.81
76998;BME280;65930;48.874;10.734;2023-03-24T09:20:48;95301.28;;;10.89;88.84
76998;BME280;65930;48.874;10.734;2023-03-24T09:23:17;95276.72;;;10.91;89.48
76998;BME280;65930;48.874;10.734;2023-03-24T09:25:49;95282.50;;;11.00;89.24
76998;BME280;65930;48.874;10.734;2023-03-24T09:28:18;95288.34;;;11.06;88.95
76998;BME280;65930;48.874;10.734;2023-03-24T09:30:46;95284.59;;;11.16;89.11
76998;BME280;65930;48.874;10.734;2023-03-24T09:33:15;95270.63;;;10.99;88.89
76998;BME280;65930;48.874;10.734;2023-03-24T09:35:43;95261.91;;;11.01;89.20
76998;BME280;65930;48.874;10.734;2023-03-24T09:38:11;95277.06;;;11.16;88.71
76998;BME280;65930;48.874;10.734;2023-03-24T09:40:39;95285.13;;;11.30;89.11
76998;BME280;65930;48.874;10.734;2023-03-24T09:43:23;95271.97;;;11.34;89.20
76998;BME280;65930;48.874;10.734;2023-03-24T09:45:54;95273.78;;;11.44;89.67
76998;BME280;65930;48.874;10.734;2023-03-24T09:48:32;95246.63;;;11.36;88.64
76998;BME280;65930;48.874;10.734;2023-03-24T09:51:05;95220.56;;;11.73;87.40
76998;BME280;65930;48.874;10.734;2023-03-24T09:53:41;95197.34;;;11.83;86.77
76998;BME280;65930;48.874;10.734;2023-03-24T09:56:13;95174.44;;;11.79;87.15
76998;BME280;65930;48.874;10.734;2023-03-24T09:58:50;95218.16;;;12.11;86.32
76998;BME280;65930;48.874;10.734;2023-03-24T10:01:20;95205.56;;;12.06;86.41
76998;BME280;65930;48.874;10.734;2023-03-24T10:03:48;95203.28;;;12.01;86.38
76998;BME280;65930;48.874;10.734;2023-03-24T10:06:22;95238.66;;;12.17;85.51
76998;BME280;65930;48.874;10.734;2023-03-24T10:09:14;95234.72;;;12.14;85.41
76998;BME280;65930;48.874;10.734;2023-03-24T10:11:57;95243.34;;;12.20;85.54
76998;BME280;65930;48.874;10.734;2023-03-24T10:14:43;95246.16;;;12.36;84.68
76998;BME280;65930;48.874;10.734;2023-03-24T10:17:22;95247.09;;;12.29;84.27
76998;BME280;65930;48.874;10.734;2023-03-24T10:19:57;95249.13;;;12.45;84.14
76998;BME280;65930;48.874;10.734;2023-03-24T10:22:34;95260.47;;;12.34;83.51
76998;BME280;65930;48.874;10.734;2023-03-24T10:25:14;95229.41;;;12.40;84.93
76998;BME280;65930;48.874;10.734;2023-03-24T10:27:49;95243.78;;;12.34;84.39
76998;BME280;65930;48.874;10.734;2023-03-24T10:30:24;95239.25;;;12.08;84.41
76998;BME280;65930;48.874;10.734;2023-03-24T10:32:53;95238.25;;;11.99;84.91
76998;BME280;65930;48.874;10.734;2023-03-24T10:35:26;95251.09;;;12.09;85.25
76998;BME280;65930;48.874;10.734;2023-03-24T10:37:58;95257.47;;;11.89;85.91
76998;BME280;65930;48.874;10.734;2023-03-24T10:40:30;95238.88;;;11.86;85.26
76998;BME280;65930;48.874;10.734;2023-03-24T10:43:02;95262.09;;;11.96;85.55
76998;BME280;65930;48.874;10.734;2023-03-24T10:45:39;95246.78;;;12.08;85.51
76998;BME280;65930;48.874;10.734;2023-03-24T10:48:12;95219.72;;;12.12;85.61
76998;BME280;65930;48.874;10.734;2023-03-24T10:50:43;95226.06;;;12.28;85.04
76998;BME280;65930;48.874;10.734;2023-03-24T10:53:16;95235.28;;;12.42;84.18
76998;BME280;65930;48.874;10.734;2023-03-24T10:55:46;95245.75;;;12.54;83.78
76998;BME280;65930;48.874;10.734;2023-03-24T10:58:27;95255.63;;;12.71;84.49
76998;BME280;65930;48.874;10.734;2023-03-24T11:00:58;95248.50;;;12.70;83.79
76998;BME280;65930;48.874;10.734;2023-03-24T11:03:29;95239.66;;;12.75;83.48
76998;BME280;65930;48.874;10.734;2023-03-24T11:06:00;95233.41;;;12.87;82.54
76998;BME280;65930;48.874;10.734;2023-03-24T11:08:33;95232.81;;;12.96;80.00
76998;BME280;65930;48.874;10.734;2023-03-24T11:11:13;95236.53;;;13.05;79.75
76998;BME280;65930;48.874;10.734;2023-03-24T11:13:53;95219.31;;;12.94;79.20
76998;BME280;65930;48.874;10.734;2023-03-24T11:16:28;95224.19;;;12.90;79.07
76998;BME280;65930;48.874;10.734;2023-03-24T11:18:59;95222.13;;;12.94;78.69
76998;BME280;65930;48.874;10.734;2023-03-24T11:21:29;95236.19;;;13.19;78.55
76998;BME280;65930;48.874;10.734;2023-03-24T11:24:00;95225.94;;;13.16;78.61
76998;BME280;65930;48.874;10.734;2023-03-24T11:26:32;95215.69;;;13.13;77.16
76998;BME280;65930;48.874;10.734;2023-03-24T11:29:04;95228.53;;;13.23;76.64
76998;BME280;65930;48.874;10.734;2023-03-24T11:31:36;95233.63;;;13.25;76.21
76998;BME280;65930;48.874;10.734;2023-03-24T11:34:09;95248.38;;;13.54;75.51
76998;BME280;65930;48.874;10.734;2023-03-24T11:36:43;95227.91;;;13.61;75.55
76998;BME280;65930;48.874;10.734;2023-03-24T11:39:17;95239.97;;;13.71;75.05
76998;BME280;65930;48.874;10.734;2023-03-24T11:41:58;95213.59;;;13.75;75.28
76998;BME280;65930;48.874;10.734;2023-03-24T11:44:31;95211.00;;;13.68;74.47
76998;BME280;65930;48.874;10.734;2023-03-24T11:47:07;95210.94;;;13.72;75.09
76998;BME280;65930;48.874;10.734;2023-03-24T11:49:41;95208.69;;;13.38;74.56
76998;BME280;65930;48.874;10.734;2023-03-24T11:52:21;95211.78;;;13.40;74.39
76998;BME280;65930;48.874;10.734;2023-03-24T11:54:49;95212.41;;;13.47;75.20
76998;BME280;65930;48.874;10.734;2023-03-24T11:57:33;95211.72;;;13.43;75.43
76998;BME280;65930;48.874;10.734;2023-03-24T12:00:13;95219.22;;;13.59;76.12
76998;BME280;65930;48.874;10.734;2023-03-24T12:03:18;95204.88;;;13.60;75.55
76998;BME280;65930;48.874;10.734;2023-03-24T12:05:57;95214.47;;;13.72;74.51
76998;BME280;65930;48.874;10.734;2023-03-24T12:08:38;95213.94;;;13.77;74.43
76998;BME280;65930;48.874;10.734;2023-03-24T12:11:18;95221.94;;;13.75;74.04
76998;BME280;65930;48.874;10.734;2023-03-24T12:13:50;95211.69;;;13.72;74.52
76998;BME280;65930;48.874;10.734;2023-03-24T12:16:40;95205.97;;;13.63;74.25
76998;BME280;65930;48.874;10.734;2023-03-24T12:22:27;95201.69;;;13.75;74.31
76998;BME280;65930;48.874;10.734;2023-03-24T12:25:20;95201.72;;;13.87;73.38
76998;BME280;65930;48.874;10.734;2023-03-24T12:28:10;95172.53;;;13.79;74.20
76998;BME280;65930;48.874;10.734;2023-03-24T12:30:58;95185.34;;;13.89;72.63
76998;BME280;65930;48.874;10.734;2023-03-24T12:33:45;95171.00;;;14.03;73.03
76998;BME280;65930;48.874;10.734;2023-03-24T12:36:38;95178.16;;;14.17;71.83
76998;BME280;65930;48.874;10.734;2023-03-24T12:39:12;95190.44;;;14.45;72.22
76998;BME280;65930;48.874;10.734;2023-03-24T12:42:01;95168.03;;;14.48;70.84
76998;BME280;65930;48.874;10.734;2023-03-24T12:44:56;95173.47;;;14.52;71.83
76998;BME280;65930;48.874;10.734;2023-03-24T12:47:42;95174.81;;;14.60;70.29
76998;BME280;65930;48.874;10.734;2023-03-24T12:50:25;95161.44;;;14.55;70.19
76998;BME280;65930;48.874;10.734;2023-03-24T12:53:14;95151.47;;;14.79;71.87
76998;BME280;65930;48.874;10.734;2023-03-24T12:55:47;95152.81;;;14.75;69.57
76998;BME280;65930;48.874;10.734;2023-03-24T12:58:25;95156.47;;;14.84;70.20
76998;BME280;65930;48.874;10.734;2023-03-24T13:01:01;95164.84;;;14.84;69.31
76998;BME280;65930;48.874;10.734;2023-03-24T13:03:38;95166.31;;;14.76;70.23
76998;BME280;65930;48.874;10.734;2023-03-24T13:06:16;95164.19;;;14.80;69.94
76998;BME280;65930;48.874;10.734;2023-03-24T13:08:58;95156.75;;;14.52;68.70
76998;BME280;65930;48.874;10.734;2023-03-24T13:11:37;95155.69;;;14.37;68.24
76998;BME280;65930;48.874;10.734;2023-03-24T13:14:15;95160.22;;;14.43;69.95
76998;BME280;65930;48.874;10.734;2023-03-24T13:16:49;95163.91;;;14.53;67.88
76998;BME280;65930;48.874;10.734;2023-03-24T13:19:22;95169.47;;;14.53;67.25
76998;BME280;65930;48.874;10.734;2023-03-24T13:21:53;95160.41;;;14.62;68.81
76998;BME280;65930;48.874;10.734;2023-03-24T13:24:25;95164.56;;;14.57;67.14
76998;BME280;65930;48.874;10.734;2023-03-24T13:27:00;95170.38;;;14.50;66.28
76998;BME280;65930;48.874;10.734;2023-03-24T13:29:56;95162.88;;;14.47;66.60
76998;BME280;65930;48.874;10.734;2023-03-24T13:32:35;95161.09;;;14.53;66.46
76998;BME280;65930;48.874;10.734;2023-03-24T13:35:14;95156.31;;;14.53;66.27
76998;BME280;65930;48.874;10.734;2023-03-24T13:37:48;95152.53;;;14.60;65.52